Time;durP1;ratioP1;P1;durP2;ratioP2;P2;SDS_P1;SDS_P2;PMS_P1;PMS_P2;Temp;Humidity;BMP_temperature;BMP_pressure;BME280_temperature;BME280_humidity;BME280_pressure;Samples;Min_cycle;Max_cycle;Signal;HPM_P1;HPM_P2
2022/06/02 00:02:06;;;;;;;8.30;7.43;;;;;;;11.48;86.41;101730.13;5011082;28;20281;-71
2022/06/02 00:04:43;;;;;;;8.53;7.30;;;;;;;11.41;86.83;101720.47;5029464;28;20186;-71
2022/06/02 00:07:18;;;;;;;8.37;7.47;;;;;;;11.36;86.99;101725.50;4994983;28;20193;-72
2022/06/02 00:10:16;;;;;;;9.80;8.00;;;;;;;11.31;87.38;101721.03;5029524;28;20646;-71
2022/06/02 00:12:50;;;;;;;11.07;8.07;;;;;;;11.25;87.53;101721.72;5028326;28;20259;-71
2022/06/02 00:15:23;;;;;;;11.37;7.73;;;;;;;11.19;87.82;101724.09;5029480;28;20548;-71
2022/06/02 00:18:14;;;;;;;9.10;8.13;;;;;;;11.13;87.66;101728.16;5028646;28;20234;-71
2022/06/02 00:20:54;;;;;;;9.70;7.77;;;;;;;11.09;88.44;101737.44;5029185;28;20183;-71
2022/06/02 00:23:38;;;;;;;9.90;8.60;;;;;;;11.02;88.59;101735.50;5010665;28;20272;-71
2022/06/02 00:26:09;;;;;;;10.43;8.80;;;;;;;11.01;88.34;101733.75;5029269;28;20691;-71
2022/06/02 00:28:46;;;;;;;9.77;8.57;;;;;;;10.96;88.37;101732.75;5010752;28;20210;-71
2022/06/02 00:31:45;;;;;;;11.23;9.33;;;;;;;10.94;88.93;101746.34;5029246;28;20194;-71
2022/06/02 00:34:19;;;;;;;10.20;8.70;;;;;;;10.87;89.29;101746.97;5028149;28;20617;-71
2022/06/02 00:37:00;;;;;;;10.97;8.60;;;;;;;10.85;89.00;101743.47;5029153;28;20231;-71
2022/06/02 00:39:29;;;;;;;9.50;8.37;;;;;;;10.81;88.85;101747.63;5010756;28;20221;-71
2022/06/02 00:41:54;;;;;;;8.90;8.00;;;;;;;10.80;89.29;101752.72;5010727;28;20594;-71
2022/06/02 00:44:52;;;;;;;10.03;7.97;;;;;;;10.76;89.37;101751.75;5028369;28;20193;-71
2022/06/02 00:47:52;;;;;;;11.30;7.37;;;;;;;10.69;89.85;101762.59;5010874;28;20210;-71
2022/06/02 00:50:26;;;;;;;9.20;7.07;;;;;;;10.67;89.89;101761.69;5031953;28;20812;-71
2022/06/02 00:53:05;;;;;;;8.00;6.80;;;;;;;10.64;90.05;101764.13;5014460;28;20186;-71
2022/06/02 00:59:08;;;;;;;8.47;7.57;;;;;;;10.53;90.36;101765.47;5031653;28;20222;-71
2022/06/02 01:01:36;;;;;;;8.83;6.90;;;;;;;10.51;90.01;101766.25;5031628;28;20178;-71
2022/06/02 01:04:22;;;;;;;7.20;6.13;;;;;;;10.46;90.31;101776.31;5032171;28;20585;-71
2022/06/02 01:07:18;;;;;;;7.97;6.73;;;;;;;10.42;89.54;101779.56;5031350;28;20779;-71
2022/06/02 01:10:02;;;;;;;7.07;6.13;;;;;;;10.40;90.50;101776.09;5014186;28;20548;-71
2022/06/02 01:13:02;;;;;;;8.87;6.97;;;;;;;10.39;89.92;101781.16;5031525;28;20548;-71
2022/06/02 01:15:51;;;;;;;9.53;6.53;;;;;;;10.35;90.67;101782.75;5031980;28;20182;-71
2022/06/02 01:18:31;;;;;;;7.37;6.63;;;;;;;10.32;90.91;101792.88;5013639;28;20313;-71
2022/06/02 01:21:23;;;;;;;7.67;6.90;;;;;;;10.30;90.78;101791.06;5032184;28;20171;-71
2022/06/02 01:24:13;;;;;;;7.83;6.70;;;;;;;10.23;91.07;101792.53;5031159;28;20219;-71
2022/06/02 01:27:06;;;;;;;7.43;6.73;;;;;;;10.17;90.91;101789.78;5031972;28;20226;-71
2022/06/02 01:30:16;;;;;;;8.67;7.07;;;;;;;10.15;91.02;101800.78;5031260;28;20266;-71
2022/06/02 01:32:57;;;;;;;7.97;7.07;;;;;;;10.09;91.75;101791.19;4977066;28;20255;-71
2022/06/02 01:35:48;;;;;;;8.53;6.70;;;;;;;10.06;90.90;101798.75;5031170;28;20264;-71
2022/06/02 01:38:27;;;;;;;7.20;6.50;;;;;;;10.02;91.48;101806.22;4996974;28;20218;-71
2022/06/02 01:41:34;;;;;;;8.53;6.53;;;;;;;9.93;91.38;101799.09;5031323;28;20178;-71
2022/06/02 01:44:26;;;;;;;7.70;7.00;;;;;;;9.91;91.11;101805.81;5003531;28;20205;-71
2022/06/02 01:47:18;;;;;;;7.80;6.97;;;;;;;9.88;91.43;101805.72;5031058;28;20256;-71
2022/06/02 01:50:08;;;;;;;7.83;7.03;;;;;;;9.83;91.42;101808.91;5031633;28;20198;-71
2022/06/02 01:52:42;;;;;;;7.90;6.67;;;;;;;9.77;91.90;101798.47;5012853;28;20197;-71
2022/06/02 01:55:14;;;;;;;7.90;7.10;;;;;;;9.68;92.13;101805.78;5013610;28;20632;-71
2022/06/02 01:57:57;;;;;;;8.63;6.97;;;;;;;9.61;92.12;101807.22;5030811;28;20556;-71
2022/06/02 02:00:26;;;;;;;11.47;7.33;;;;;;;9.58;91.84;101801.13;5030893;28;20179;-71
2022/06/02 02:03:20;;;;;;;8.30;7.50;;;;;;;9.53;91.75;101803.50;5030763;28;20633;-71
2022/06/02 02:06:18;;;;;;;8.40;7.57;;;;;;;9.50;92.11;101799.97;5013126;28;20618;-71
2022/06/02 02:09:18;;;;;;;10.10;8.00;;;;;;;9.39;91.62;101809.75;5030497;28;20747;-72
2022/06/02 02:11:54;;;;;;;7.33;6.63;;;;;;;9.26;91.17;101809.22;5030439;28;20182;-71
2022/06/02 02:14:43;;;;;;;7.87;7.07;;;;;;;9.20;91.54;101812.41;5030334;28;20217;-71
2022/06/02 02:17:36;;;;;;;7.73;6.90;;;;;;;9.15;91.09;101825.78;5030672;28;20533;-71
2022/06/02 02:20:23;;;;;;;9.30;6.80;;;;;;;9.15;90.96;101826.66;5029970;28;20692;-71
2022/06/02 02:23:00;;;;;;;8.87;7.70;;;;;;;9.12;90.62;101823.97;5012284;28;20818;-71
2022/06/02 02:25:32;;;;;;;7.10;6.40;;;;;;;9.04;90.80;101830.44;5030180;28;20182;-71
2022/06/02 02:28:12;;;;;;;7.80;7.00;;;;;;;9.02;90.68;101826.97;5012841;28;20214;-71
2022/06/02 02:30:43;;;;;;;9.37;7.93;;;;;;;8.97;90.75;101825.91;5029997;28;20170;-71
2022/06/02 02:33:36;;;;;;;8.27;7.47;;;;;;;8.91;90.33;101833.34;5029894;28;20206;-71
2022/06/02 02:36:29;;;;;;;8.90;7.37;;;;;;;8.88;90.73;101832.31;5029883;28;20186;-71
2022/06/02 02:39:16;;;;;;;9.03;7.50;;;;;;;8.88;90.84;101830.63;5010599;28;20222;-71
2022/06/02 02:41:55;;;;;;;9.00;7.90;;;;;;;8.81;90.88;101835.44;4992389;28;20183;-71
2022/06/02 02:44:36;;;;;;;9.87;8.63;;;;;;;8.86;92.04;101829.72;5010727;28;20191;-71
2022/06/02 02:47:17;;;;;;;9.13;8.13;;;;;;;8.75;90.69;101836.03;5013451;28;20182;-71
2022/06/02 02:49:51;;;;;;;9.27;8.33;;;;;;;8.79;90.86;101834.47;5030194;28;20192;-71
2022/06/02 02:52:26;;;;;;;10.43;8.50;;;;;;;8.78;91.41;101831.06;5029757;28;20195;-71
2022/06/02 02:55:06;;;;;;;10.37;8.87;;;;;;;8.79;92.08;101835.34;5030368;28;20202;-71
2022/06/02 02:57:57;;;;;;;10.00;9.00;;;;;;;8.75;91.92;101840.28;5030368;28;20272;-71
2022/06/02 03:00:31;;;;;;;10.37;8.80;;;;;;;8.65;91.38;101839.00;5029365;28;20277;-71
2022/06/02 03:03:23;;;;;;;11.23;8.80;;;;;;;8.66;91.69;101847.56;5029834;28;20193;-71
2022/06/02 03:06:06;;;;;;;11.80;9.13;;;;;;;8.68;92.03;101836.59;5030030;28;20687;-71
2022/06/02 03:08:58;;;;;;;11.40;10.07;;;;;;;8.68;91.70;101839.16;5029383;28;20210;-71
2022/06/02 03:11:42;;;;;;;12.20;10.43;;;;;;;8.69;93.22;101846.00;5029059;28;20174;-71
2022/06/02 03:14:37;;;;;;;14.73;10.87;;;;;;;8.70;93.50;101849.44;5029594;28;20182;-71
2022/06/02 03:17:25;;;;;;;14.00;11.57;;;;;;;8.67;94.06;101851.84;5029445;28;20187;-71
2022/06/02 03:20:20;;;;;;;13.10;11.70;;;;;;;8.68;94.22;101856.13;5029730;28;20249;-71
2022/06/02 03:23:15;;;;;;;12.07;10.77;;;;;;;8.64;93.68;101856.81;5029013;28;20194;-71
2022/06/02 03:25:53;;;;;;;14.80;10.43;;;;;;;8.61;93.82;101861.81;5029645;28;20201;-71
2022/06/02 03:28:41;;;;;;;12.30;10.73;;;;;;;8.55;93.29;101853.84;5029796;28;20631;-71
2022/06/02 03:31:27;;;;;;;13.73;10.50;;;;;;;8.56;93.05;101855.59;5029732;28;20532;-71
2022/06/02 03:34:22;;;;;;;12.27;10.97;;;;;;;8.53;93.04;101863.13;5028993;28;20293;-73
2022/06/02 03:37:41;;;;;;;11.73;10.30;;;;;;;8.58;93.79;101862.53;5018694;28;20211;-71
2022/06/02 03:40:19;;;;;;;11.90;10.70;;;;;;;8.56;93.59;101863.25;4950994;28;20824;-71
2022/06/02 03:43:06;;;;;;;13.37;10.83;;;;;;;8.60;92.86;101865.13;5021111;28;20578;-71
2022/06/02 03:46:24;;;;;;;13.53;11.40;;;;;;;8.63;93.88;101860.16;5029255;28;20198;-71
2022/06/02 03:49:32;;;;;;;14.30;11.33;;;;;;;8.66;94.01;101873.09;5005831;28;21009;-71
2022/06/02 03:52:18;;;;;;;13.17;10.77;;;;;;;8.67;94.03;101872.25;5029309;28;20179;-71
2022/06/02 03:55:14;;;;;;;12.37;10.77;;;;;;;8.71;93.75;101876.69;5028868;28;20182;-71
2022/06/02 03:57:57;;;;;;;12.13;10.57;;;;;;;8.72;93.41;101883.53;5011370;28;20673;-71
2022/06/02 04:00:26;;;;;;;12.43;11.03;;;;;;;8.64;94.07;101882.34;5028726;28;20206;-71
2022/06/02 04:03:02;;;;;;;11.33;10.10;;;;;;;8.64;93.20;101879.78;5028984;28;20236;-71
2022/06/02 04:05:57;;;;;;;11.47;10.27;;;;;;;8.67;93.58;101887.59;5028487;28;20194;-71
2022/06/02 04:08:37;;;;;;;11.87;10.57;;;;;;;8.73;92.48;101893.84;5029261;28;20237;-71
2022/06/02 04:11:22;;;;;;;12.07;10.83;;;;;;;8.82;92.82;101886.56;5029046;28;20265;-71
2022/06/02 04:14:13;;;;;;;11.20;10.00;;;;;;;8.85;93.00;101899.44;5029246;28;20198;-71
2022/06/02 04:16:59;;;;;;;11.83;10.33;;;;;;;8.95;92.91;101895.63;5010970;28;20185;-71
2022/06/02 04:22:36;;;;;;;13.30;11.43;;;;;;;9.07;93.72;101899.56;5005453;28;20191;-71
2022/06/02 04:25:10;;;;;;;13.70;12.20;;;;;;;9.15;92.84;101898.22;5032748;28;20198;-71
2022/06/02 04:27:48;;;;;;;16.70;13.70;;;;;;;9.19;93.64;101900.09;5020333;28;20221;-71
2022/06/02 04:30:27;;;;;;;16.63;14.53;;;;;;;9.26;94.21;101906.31;5032099;28;20702;-71
2022/06/02 04:33:27;;;;;;;17.43;14.77;;;;;;;9.29;94.04;101899.66;5032425;28;20293;-73
2022/06/02 04:36:08;;;;;;;18.43;14.87;;;;;;;9.35;94.47;101906.72;5026081;28;20582;-71
2022/06/02 04:38:42;;;;;;;19.33;15.70;;;;;;;9.41;94.71;101910.41;5031915;28;20264;-71
2022/06/02 04:41:17;;;;;;;18.47;16.17;;;;;;;9.53;94.02;101913.44;5032343;28;20189;-72
2022/06/02 04:44:16;;;;;;;20.60;17.17;;;;;;;9.67;94.13;101917.41;5014354;28;20190;-72
2022/06/02 04:46:59;;;;;;;21.27;17.90;;;;;;;9.82;94.74;101912.91;4998543;28;20546;-71
2022/06/02 04:49:52;;;;;;;20.60;16.87;;;;;;;9.95;94.40;101921.94;5032458;28;20272;-71
2022/06/02 04:52:33;;;;;;;19.40;16.47;;;;;;;10.04;94.26;101920.63;5012562;28;20262;-71
2022/06/02 04:55:10;;;;;;;19.57;17.33;;;;;;;10.17;94.19;101924.53;5016260;28;20247;-72
2022/06/02 04:57:58;;;;;;;17.90;15.70;;;;;;;10.27;93.35;101926.66;5031687;28;20214;-72
2022/06/02 05:01:03;;;;;;;17.70;15.43;;;;;;;10.47;92.03;101931.66;5032059;28;20646;-71
2022/06/02 05:03:42;;;;;;;17.03;14.53;;;;;;;10.65;91.19;101928.94;5013945;28;20198;-71
2022/06/02 05:06:22;;;;;;;15.10;13.60;;;;;;;10.83;90.85;101938.13;5031886;28;20636;-71
2022/06/02 05:08:55;;;;;;;14.30;12.40;;;;;;;11.00;90.43;101938.72;5031625;28;20202;-72
2022/06/02 05:11:48;;;;;;;14.07;12.57;;;;;;;10.95;89.93;101940.25;5031684;28;20270;-71
2022/06/02 05:14:42;;;;;;;12.70;11.33;;;;;;;10.98;89.36;101937.81;5030423;28;20194;-71
2022/06/02 05:17:26;;;;;;;14.13;11.53;;;;;;;11.02;89.01;101935.41;5013348;28;20186;-71
2022/06/02 05:20:27;;;;;;;13.77;11.23;;;;;;;11.18;89.16;101936.81;5029502;28;20245;-71
2022/06/02 05:23:30;;;;;;;11.40;10.20;;;;;;;11.32;88.00;101940.72;5005765;28;20248;-71
2022/06/02 05:26:32;;;;;;;12.03;10.43;;;;;;;11.37;87.71;101936.59;5031430;28;20185;-71
2022/06/02 05:29:25;;;;;;;11.43;9.93;;;;;;;11.42;86.74;101937.63;5031121;28;20264;-71
2022/06/02 05:32:01;;;;;;;13.27;9.07;;;;;;;11.47;86.14;101939.53;5028966;28;20197;-71
2022/06/02 05:34:48;;;;;;;10.63;9.63;;;;;;;11.49;85.66;101934.47;5031338;28;20550;-71
2022/06/02 05:37:44;;;;;;;10.00;9.03;;;;;;;11.57;85.75;101935.59;5014155;28;20782;-71
2022/06/02 05:40:28;;;;;;;10.50;8.13;;;;;;;11.69;85.56;101938.56;5030994;28;20279;-71
2022/06/02 05:43:14;;;;;;;11.57;8.20;;;;;;;11.72;85.05;101948.94;5013516;28;20236;-71
2022/06/02 05:45:53;;;;;;;10.40;8.90;;;;;;;11.83;85.49;101950.16;5030967;28;20221;-71
2022/06/02 05:48:43;;;;;;;10.90;8.47;;;;;;;11.91;84.62;101949.59;5031191;28;20206;-71
2022/06/02 05:51:26;;;;;;;9.10;8.03;;;;;;;11.96;84.40;101958.31;5030693;28;20839;-71
2022/06/02 05:54:10;;;;;;;10.17;8.20;;;;;;;11.91;83.89;101952.16;5031201;28;20178;-71
2022/06/02 05:56:53;;;;;;;8.73;7.83;;;;;;;11.77;84.02;101963.69;5030316;28;20256;-71
2022/06/02 05:59:34;;;;;;;11.47;9.00;;;;;;;11.62;84.59;101975.97;5031055;28;20230;-71
2022/06/02 06:02:27;;;;;;;11.20;8.53;;;;;;;11.72;84.21;101975.50;5030947;28;20198;-71
2022/06/02 06:05:27;;;;;;;9.50;8.50;;;;;;;11.89;83.53;101976.88;5030899;28;20687;-71
2022/06/02 06:08:11;;;;;;;11.17;7.70;;;;;;;12.18;82.78;101978.69;5030450;28;20751;-71
2022/06/02 06:10:49;;;;;;;10.60;7.77;;;;;;;12.22;82.34;101983.09;5030324;28;20217;-71
2022/06/02 06:13:22;;;;;;;11.17;7.87;;;;;;;12.31;81.81;101987.66;5030607;28;20538;-71
2022/06/02 06:15:57;;;;;;;10.07;7.00;;;;;;;12.50;80.82;101984.81;5030146;28;20193;-71
2022/06/02 06:18:45;;;;;;;8.27;7.47;;;;;;;12.56;81.54;101992.69;5030353;28;20226;-71
2022/06/02 06:21:40;;;;;;;7.90;7.13;;;;;;;12.83;80.30;101986.66;5030091;28;20178;-70
2022/06/02 06:24:26;;;;;;;7.27;6.37;;;;;;;13.30;78.41;101980.28;5030193;28;20464;-71
2022/06/02 06:27:09;;;;;;;7.10;6.40;;;;;;;13.76;76.35;101990.06;5030014;28;20624;-71
2022/06/02 06:29:56;;;;;;;6.90;6.00;;;;;;;13.46;77.26;101990.16;5030533;28;20186;-71
2022/06/02 06:32:38;;;;;;;8.23;6.60;;;;;;;13.60;76.71;101991.38;5029797;28;20198;-71
2022/06/02 06:35:23;;;;;;;7.63;5.70;;;;;;;13.58;76.68;101990.44;5015038;28;20209;-71
2022/06/02 06:38:28;;;;;;;6.70;6.10;;;;;;;13.43;77.62;101994.31;5012383;28;20625;-71
2022/06/02 06:41:28;;;;;;;7.70;5.73;;;;;;;13.51;77.75;101996.28;5030220;28;20201;-71
2022/06/02 06:44:13;;;;;;;7.53;5.27;;;;;;;13.11;78.36;102006.34;4997351;28;20203;-71
2022/06/02 06:46:47;;;;;;;6.27;5.33;;;;;;;13.20;78.32;102003.13;5028842;28;20186;-71
2022/06/02 06:49:36;;;;;;;7.37;6.03;;;;;;;12.99;79.25;101998.28;5029839;28;20198;-71
2022/06/02 06:52:08;;;;;;;6.97;6.27;;;;;;;13.01;80.00;101998.31;5030243;28;20594;-71
2022/06/02 06:54:54;;;;;;;5.70;4.80;;;;;;;13.33;78.55;102005.22;5029432;28;20183;-71
2022/06/02 06:57:50;;;;;;;6.07;4.90;;;;;;;13.49;78.69;102004.81;5030132;28;20547;-71
2022/06/02 07:00:31;;;;;;;7.60;5.70;;;;;;;13.16;78.95;102007.31;4997470;28;20210;-71
2022/06/02 07:03:20;;;;;;;7.40;5.37;;;;;;;13.38;79.39;102008.78;4995585;28;20240;-71
2022/06/02 07:05:57;;;;;;;8.57;4.97;;;;;;;13.50;78.80;102011.69;5006238;28;20576;-71
2022/06/02 07:08:35;;;;;;;6.03;4.30;;;;;;;13.80;77.54;102007.31;5029932;28;20222;-71
2022/06/02 07:14:34;;;;;;;6.30;3.43;;;;;;;14.57;73.96;102015.19;5011933;28;20229;-71
2022/06/02 07:17:05;;;;;;;3.70;2.83;;;;;;;14.51;73.42;102020.22;5009781;28;20171;-71
2022/06/02 07:19:46;;;;;;;4.17;2.70;;;;;;;14.52;72.70;102020.28;5018807;28;20246;-71
2022/06/02 07:22:22;;;;;;;2.83;2.23;;;;;;;14.68;72.07;102022.34;5028772;28;20197;-71
2022/06/02 07:25:01;;;;;;;2.90;2.57;;;;;;;14.90;72.20;102023.66;5029352;28;20178;-71
2022/06/02 07:28:03;;;;;;;3.00;2.70;;;;;;;15.14;71.41;102026.75;5028936;28;20263;-72
2022/06/02 07:30:57;;;;;;;5.23;2.67;;;;;;;15.16;71.47;102030.22;5011856;28;20748;-71
2022/06/02 07:33:30;;;;;;;5.83;2.50;;;;;;;14.98;70.51;102029.84;5028454;28;20738;-71
2022/06/02 07:36:38;;;;;;;2.90;2.60;;;;;;;15.02;70.99;102029.97;5029355;28;20817;-71
2022/06/02 07:39:35;;;;;;;3.50;2.47;;;;;;;15.06;71.39;102033.47;5017942;28;20230;-71
2022/06/02 07:42:34;;;;;;;2.57;2.37;;;;;;;15.25;70.44;102043.31;5012292;28;20194;-71
2022/06/02 07:45:25;;;;;;;3.67;2.50;;;;;;;15.06;70.22;102033.47;5011349;28;20190;-71
2022/06/02 07:48:13;;;;;;;5.47;2.23;;;;;;;15.29;69.50;102042.53;5029059;28;20210;-71
2022/06/02 07:50:46;;;;;;;7.10;2.53;;;;;;;15.19;69.83;102035.44;5029097;28;20198;-71
2022/06/02 07:53:48;;;;;;;2.37;2.07;;;;;;;15.51;68.74;102040.41;5029184;28;20197;-71
2022/06/02 07:56:31;;;;;;;3.87;2.60;;;;;;;15.21;69.34;102038.91;5011328;28;20722;-71
2022/06/02 07:59:16;;;;;;;3.60;1.83;;;;;;;15.43;69.99;102044.53;5015530;28;20241;-71
2022/06/02 08:02:03;;;;;;;3.80;2.07;;;;;;;15.18;69.66;102041.44;5033246;28;20198;-71
2022/06/02 08:05:00;;;;;;;2.70;2.10;;;;;;;15.55;68.83;102039.63;5032871;28;20198;-71
2022/06/02 08:07:35;;;;;;;3.33;2.10;;;;;;;15.95;67.37;102044.66;5032982;28;20228;-71
2022/06/02 08:10:11;;;;;;;2.87;2.33;;;;;;;16.12;66.26;102050.94;5032811;28;20190;-71
2022/06/02 08:12:49;;;;;;;3.93;2.17;;;;;;;16.14;66.56;102051.88;5032336;28;20225;-71
2022/06/02 08:15:34;;;;;;;3.37;2.47;;;;;;;15.78;66.73;102051.25;5033028;28;20182;-71
2022/06/02 08:18:17;;;;;;;3.57;2.30;;;;;;;15.68;66.79;102054.50;5032238;28;20267;-71
2022/06/02 08:20:53;;;;;;;5.33;2.43;;;;;;;15.45;67.31;102057.50;5032803;28;20242;-71
2022/06/02 08:23:24;;;;;;;3.13;2.40;;;;;;;15.58;67.65;102059.47;5031988;28;20282;-71
2022/06/02 08:25:58;;;;;;;4.60;2.47;;;;;;;15.72;67.68;102058.00;5032229;28;20224;-71
2022/06/02 08:28:32;;;;;;;3.43;2.17;;;;;;;15.60;67.16;102063.81;5032038;28;20218;-71
2022/06/02 08:31:19;;;;;;;3.17;2.47;;;;;;;15.69;67.69;102063.97;5032748;28;20190;-71
2022/06/02 08:34:01;;;;;;;4.03;2.40;;;;;;;15.66;68.58;102061.34;5031625;28;20616;-71
2022/06/02 08:36:30;;;;;;;4.43;2.60;;;;;;;15.62;68.22;102066.44;5032693;28;20652;-71
2022/06/02 08:39:26;;;;;;;4.70;3.00;;;;;;;15.51;68.91;102071.38;5031845;28;20222;-71
2022/06/02 08:42:16;;;;;;;2.40;2.10;;;;;;;15.49;69.41;102074.78;5014656;28;20183;-71
2022/06/02 08:45:10;;;;;;;3.33;2.40;;;;;;;15.58;69.88;102070.69;5031927;28;20241;-71
2022/06/02 08:48:02;;;;;;;3.40;2.20;;;;;;;15.59;69.69;102075.00;5032147;28;20257;-71
2022/06/02 08:51:06;;;;;;;3.27;2.40;;;;;;;15.57;69.36;102071.50;5031456;28;20179;-71
2022/06/02 08:53:59;;;;;;;3.53;1.83;;;;;;;15.56;68.82;102074.94;5031935;28;20220;-71
2022/06/02 08:56:52;;;;;;;3.90;2.20;;;;;;;15.83;68.29;102072.84;5031753;28;20642;-71
2022/06/02 08:59:58;;;;;;;2.10;1.87;;;;;;;15.99;68.64;102072.28;5014227;28;20236;-71
2022/06/02 09:02:49;;;;;;;2.13;1.80;;;;;;;15.99;66.80;102074.88;4965567;28;20211;-72
2022/06/02 09:06:02;;;;;;;2.43;1.50;;;;;;;16.26;66.37;102080.47;5001722;28;20200;-71
2022/06/02 09:08:54;;;;;;;3.00;1.93;;;;;;;16.43;64.38;102079.06;4995257;28;20271;-71
2022/06/02 09:11:35;;;;;;;2.00;1.50;;;;;;;16.64;64.17;102084.56;5001816;28;20194;-71
2022/06/02 09:14:56;;;;;;;3.53;1.50;;;;;;;16.48;63.07;102084.31;5031888;28;20567;-71
2022/06/02 09:17:47;;;;;;;2.03;1.50;;;;;;;17.16;62.27;102087.00;5004546;28;20233;-71
2022/06/02 09:20:41;;;;;;;2.53;1.70;;;;;;;17.54;62.25;102088.38;5018638;28;20213;-71
2022/06/02 09:23:16;;;;;;;3.03;1.63;;;;;;;18.03;61.23;102085.41;5031296;28;20193;-71
2022/06/02 09:26:00;;;;;;;3.83;1.80;;;;;;;18.54;58.42;102087.56;5030947;28;20229;-71
2022/06/02 09:28:37;;;;;;;4.90;2.00;;;;;;;18.69;58.60;102085.06;5031431;28;20221;-71
2022/06/02 09:31:26;;;;;;;3.73;2.17;;;;;;;17.88;59.16;102082.69;5031653;28;20229;-71
2022/06/02 09:34:19;;;;;;;2.73;2.27;;;;;;;17.52;60.76;102092.66;5031025;28;20660;-71
2022/06/02 09:37:19;;;;;;;3.00;1.83;;;;;;;17.39;61.50;102095.06;5031371;28;20198;-71
2022/06/02 09:40:09;;;;;;;4.77;2.23;;;;;;;17.38;61.69;102093.31;5029531;28;20222;-71
2022/06/02 09:42:46;;;;;;;3.83;1.37;;;;;;;17.29;61.29;102088.91;5031281;28;20205;-71
2022/06/02 09:45:54;;;;;;;3.67;1.67;;;;;;;17.18;60.92;102095.66;5030959;28;20189;-71
2022/06/02 09:48:58;;;;;;;4.27;1.80;;;;;;;17.64;59.48;102099.72;5031005;28;20695;-71
2022/06/02 09:51:49;;;;;;;3.03;1.70;;;;;;;18.19;57.43;102095.06;5012469;28;20197;-72
2022/06/02 09:54:53;;;;;;;2.77;1.60;;;;;;;18.73;55.25;102098.09;5031257;28;20798;-71
2022/06/02 09:57:56;;;;;;;3.60;1.80;;;;;;;18.42;56.39;102090.09;5030568;28;20629;-71
2022/06/02 10:00:41;;;;;;;3.90;1.70;;;;;;;18.62;56.36;102107.56;5030892;28;20206;-71
2022/06/02 10:03:19;;;;;;;1.90;1.70;;;;;;;19.10;56.06;102102.63;5030216;28;20183;-71
2022/06/02 10:06:23;;;;;;;5.60;1.80;;;;;;;18.86;55.51;102106.81;5030909;28;20269;-72
2022/06/02 10:08:51;;;;;;;3.27;1.60;;;;;;;18.54;56.63;102110.94;4933724;29;20644;-71
2022/06/02 10:11:35;;;;;;;3.53;1.70;;;;;;;18.22;58.00;102114.94;4940732;29;20224;-71
2022/06/02 10:14:29;;;;;;;2.87;1.30;;;;;;;17.75;59.05;102111.94;4982528;28;20194;-71
2022/06/02 10:17:30;;;;;;;3.43;1.87;;;;;;;17.57;59.63;102126.38;5019954;28;20256;-71
2022/06/02 10:20:13;;;;;;;3.53;1.67;;;;;;;17.56;59.76;102124.66;5030100;28;20206;-71
2022/06/02 10:22:59;;;;;;;5.30;1.97;;;;;;;17.39;60.55;102129.63;5030765;28;20269;-71
2022/06/02 10:25:40;;;;;;;3.07;1.87;;;;;;;17.36;59.79;102129.56;5029598;28;20194;-72
2022/06/02 10:28:35;;;;;;;4.77;1.60;;;;;;;17.10;60.18;102124.91;5030161;28;20314;-71
2022/06/02 10:31:28;;;;;;;5.23;1.50;;;;;;;17.15;60.95;102134.47;5012460;28;20202;-71
2022/06/02 10:34:27;;;;;;;3.03;1.67;;;;;;;17.26;61.62;102134.59;5012115;28;20186;-71
2022/06/02 10:37:02;;;;;;;4.67;1.83;;;;;;;17.28;61.15;102135.50;5012322;28;20197;-71
2022/06/02 10:39:52;;;;;;;5.40;1.90;;;;;;;17.34;60.56;102133.84;5029930;28;20709;-71
2022/06/02 10:42:54;;;;;;;3.60;1.70;;;;;;;17.25;60.04;102138.91;5010264;28;20212;-72
2022/06/02 10:46:02;;;;;;;4.43;1.50;;;;;;;17.21;60.38;102144.03;5019625;28;20178;-71
2022/06/02 10:48:46;;;;;;;2.27;1.80;;;;;;;16.86;61.02;102143.53;5029484;28;20202;-71
2022/06/02 10:52:08;;;;;;;3.30;1.43;;;;;;;16.80;62.67;102158.13;5029380;28;20217;-71
2022/06/02 10:55:01;;;;;;;2.50;1.37;;;;;;;16.80;62.74;102158.97;5029544;28;20584;-71
2022/06/02 10:58:09;;;;;;;2.77;1.60;;;;;;;16.84;61.89;102146.94;5029765;28;20214;-71
2022/06/02 11:01:22;;;;;;;4.10;1.53;;;;;;;17.19;62.45;102154.38;5029709;28;20217;-72
2022/06/02 11:04:18;;;;;;;3.57;1.60;;;;;;;17.24;61.26;102155.31;4955327;28;20212;-71
2022/06/02 11:07:01;;;;;;;2.63;1.47;;;;;;;17.53;60.49;102153.97;5027181;28;20666;-72
2022/06/02 11:10:04;;;;;;;5.07;1.50;;;;;;;18.17;59.37;102142.56;5011299;28;20243;-71
2022/06/02 11:13:03;;;;;;;3.33;1.73;;;;;;;19.27;56.95;102136.50;4992524;28;20221;-72
2022/06/02 11:16:02;;;;;;;2.20;1.47;;;;;;;19.25;55.67;102148.63;5001813;28;20290;-72
2022/06/02 11:19:09;;;;;;;3.07;1.70;;;;;;;19.95;51.69;102137.63;5029509;28;20297;-72
2022/06/02 11:21:53;;;;;;;4.07;1.50;;;;;;;18.99;52.95;102142.38;5009727;28;20213;-72
2022/06/02 11:24:51;;;;;;;2.87;1.40;;;;;;;18.75;55.48;102148.28;5011230;28;20221;-71
2022/06/02 11:27:49;;;;;;;3.20;1.80;;;;;;;18.53;56.82;102149.00;5010663;28;20208;-72
2022/06/02 11:30:31;;;;;;;3.13;1.83;;;;;;;18.49;57.61;102156.72;5018493;28;20202;-71
2022/06/02 11:33:23;;;;;;;3.13;1.70;;;;;;;18.53;57.18;102150.72;5021315;28;20209;-71
2022/06/02 11:36:21;;;;;;;6.97;3.07;;;;;;;18.53;56.16;102156.78;5029455;28;20182;-71
2022/06/02 11:38:58;;;;;;;4.33;1.83;;;;;;;18.54;56.23;102155.91;4995711;28;20303;-72
2022/06/02 11:41:31;;;;;;;4.00;1.67;;;;;;;18.29;55.60;102156.50;5012046;28;20264;-71
2022/06/02 11:44:07;;;;;;;2.37;1.47;;;;;;;18.54;53.53;102157.63;5028839;28;20190;-71
2022/06/02 11:46:44;;;;;;;3.27;1.60;;;;;;;18.80;53.43;102158.72;5011643;28;20233;-72
2022/06/02 11:49:36;;;;;;;5.07;2.10;;;;;;;18.71;53.46;102159.53;5028758;28;20205;-71
2022/06/02 11:52:14;;;;;;;3.13;1.50;;;;;;;18.85;54.14;102160.50;5029337;28;20985;-71
2022/06/02 11:54:39;;;;;;;4.13;1.60;;;;;;;19.05;55.47;102168.38;5028317;28;20186;-71
2022/06/02 11:57:40;;;;;;;2.40;1.60;;;;;;;19.22;54.30;102159.88;5011490;28;20216;-72
2022/06/02 12:00:23;;;;;;;4.60;1.73;;;;;;;18.88;55.30;102164.84;5010988;28;20304;-71
2022/06/02 12:03:31;;;;;;;5.40;1.63;;;;;;;18.96;54.10;102163.13;5029084;28;20265;-71
2022/06/02 12:06:30;;;;;;;1.80;1.40;;;;;;;18.92;54.29;102158.78;5029027;28;20213;-71
2022/06/02 12:09:25;;;;;;;3.13;1.57;;;;;;;19.16;54.77;102159.78;5028790;28;20217;-72
2022/06/02 12:12:10;;;;;;;2.23;1.47;;;;;;;19.26;53.99;102155.56;5018292;28;20721;-71
2022/06/02 12:15:04;;;;;;;3.87;1.57;;;;;;;20.08;51.50;102145.47;5011317;28;20201;-72
2022/06/02 12:17:55;;;;;;;1.67;1.37;;;;;;;19.92;52.54;102161.00;5028786;28;20198;-72
2022/06/02 12:20:33;;;;;;;2.47;1.63;;;;;;;19.56;52.82;102148.75;5011257;28;20222;-71
2022/06/02 12:23:17;;;;;;;4.17;1.87;;;;;;;19.55;51.85;102151.34;5028289;28;20201;-71
2022/06/02 12:25:55;;;;;;;2.63;1.60;;;;;;;20.20;51.14;102142.88;5028609;28;20189;-71
2022/06/02 12:28:37;;;;;;;2.17;1.40;;;;;;;20.50;50.41;102148.09;5027175;28;20214;-71
2022/06/02 12:31:24;;;;;;;3.70;1.50;;;;;;;20.57;51.37;102133.34;5028319;28;20192;-72
2022/06/02 12:34:23;;;;;;;3.57;1.50;;;;;;;20.48;50.79;102147.22;5000473;28;20186;-73
2022/06/02 12:37:10;;;;;;;4.10;2.00;;;;;;;20.31;50.58;102151.56;5026928;28;20174;-72
2022/06/02 12:39:50;;;;;;;4.40;2.00;;;;;;;20.56;50.00;102142.91;5012106;28;20214;-72
2022/06/02 12:42:28;;;;;;;3.57;1.70;;;;;;;20.95;50.96;102144.59;5027529;28;20872;-72
2022/06/02 12:45:22;;;;;;;3.47;1.50;;;;;;;21.28;51.52;102141.91;5030660;28;20194;-72
2022/06/02 12:48:19;;;;;;;2.93;1.40;;;;;;;21.52;49.45;102141.81;5032427;28;20241;-72
2022/06/02 12:51:14;;;;;;;3.37;1.60;;;;;;;21.20;48.18;102154.97;5032254;28;20170;-72
2022/06/02 12:53:51;;;;;;;2.30;1.50;;;;;;;21.07;48.79;102150.66;5012374;28;20180;-72
2022/06/02 12:56:35;;;;;;;3.00;1.70;;;;;;;20.83;49.37;102145.44;4994584;28;20654;-72
2022/06/02 12:59:20;;;;;;;3.17;1.73;;;;;;;21.22;49.94;102149.75;5012670;28;20273;-72
2022/06/02 13:02:09;;;;;;;3.03;1.90;;;;;;;20.75;49.50;102143.72;5012131;28;20913;-72
2022/06/02 13:05:28;;;;;;;3.80;2.07;;;;;;;20.57;49.79;102157.66;5023023;28;20218;-71
2022/06/02 13:08:14;;;;;;;3.03;2.00;;;;;;;20.32;50.42;102158.50;5031773;28;20210;-72